Time;durP1;ratioP1;P1;durP2;ratioP2;P2;SDS_P1;SDS_P2;PMS_P1;PMS_P2;Temp;Humidity;BMP_temperature;BMP_pressure;BME280_temperature;BME280_humidity;BME280_pressure;Samples;Min_cycle;Max_cycle;Signal;HPM_P1;HPM_P2
2024/03/01 00:02:18;;;;;;;6.80;2.15;;;;;;;6.23;100.00;91743.16;4747336;30;20044;-84
2024/03/01 00:04:43;;;;;;;5.20;2.40;;;;;;;6.13;100.00;91727.69;4744055;30;20043;-83
2024/03/01 00:07:09;;;;;;;5.22;2.03;;;;;;;6.21;100.00;91734.09;4766041;30;20051;-82
2024/03/01 00:09:35;;;;;;;4.50;2.00;;;;;;;6.19;100.00;91730.97;4769415;30;20035;-83
2024/03/01 00:12:00;;;;;;;7.88;2.08;;;;;;;6.20;100.00;91729.94;4755554;30;20044;-84
2024/03/01 00:14:26;;;;;;;6.35;2.13;;;;;;;6.18;100.00;91726.84;4759681;30;20044;-83
2024/03/01 00:16:52;;;;;;;8.95;2.33;;;;;;;6.21;100.00;91728.88;4761018;30;20079;-82
2024/03/01 00:19:18;;;;;;;9.43;2.42;;;;;;;6.18;100.00;91719.81;4766423;30;20057;-84
2024/03/01 00:21:44;;;;;;;5.93;1.90;;;;;;;6.22;100.00;91730.44;4756396;30;20076;-82
2024/03/01 00:24:10;;;;;;;9.80;2.20;;;;;;;6.15;100.00;91725.59;4757270;30;20040;-83
2024/03/01 00:26:35;;;;;;;5.45;2.08;;;;;;;6.19;100.00;91723.19;4757264;30;20188;-83
2024/03/01 00:29:01;;;;;;;7.45;2.00;;;;;;;6.21;100.00;91723.69;4756334;30;20082;-84
2024/03/01 00:31:26;;;;;;;6.28;1.83;;;;;;;6.20;100.00;91717.72;4761847;30;20189;-83
2024/03/01 00:33:52;;;;;;;8.80;2.30;;;;;;;6.17;100.00;91717.50;4753715;30;20075;-83
2024/03/01 00:36:19;;;;;;;5.90;2.13;;;;;;;6.20;100.00;91717.72;4757953;30;20036;-82
2024/03/01 00:38:44;;;;;;;8.63;2.20;;;;;;;6.15;100.00;91711.81;4745617;30;20078;-83
2024/03/01 00:41:10;;;;;;;6.70;2.15;;;;;;;6.21;100.00;91716.69;4758732;30;20075;-83
2024/03/01 00:43:36;;;;;;;5.57;2.20;;;;;;;6.21;100.00;91708.88;4759027;30;20040;-83
2024/03/01 00:46:02;;;;;;;4.50;2.25;;;;;;;6.18;100.00;91703.47;4764356;30;20106;-84
2024/03/01 00:48:27;;;;;;;10.27;2.20;;;;;;;6.14;100.00;91703.22;4753108;30;20040;-83
2024/03/01 00:50:53;;;;;;;9.38;2.00;;;;;;;6.16;100.00;91695.16;4761735;30;20069;-84
2024/03/01 00:53:18;;;;;;;7.55;1.95;;;;;;;6.15;100.00;91704.03;4751441;30;20064;-83
2024/03/01 00:55:44;;;;;;;8.55;1.88;;;;;;;6.16;100.00;91700.38;4758981;30;20044;-82
2024/03/01 00:58:09;;;;;;;8.00;2.38;;;;;;;6.13;100.00;91691.31;4748786;30;20055;-83
2024/03/01 01:00:35;;;;;;;8.55;2.05;;;;;;;6.29;100.00;91699.69;4751465;30;20390;-83
2024/03/01 01:03:00;;;;;;;7.38;1.90;;;;;;;6.20;100.00;91702.13;4751128;30;20101;-83
2024/03/01 01:05:26;;;;;;;5.25;1.83;;;;;;;6.25;100.00;91702.06;4757596;30;20340;-83
2024/03/01 01:07:52;;;;;;;3.88;1.50;;;;;;;6.18;100.00;91698.25;4756743;30;20052;-83
2024/03/01 01:10:17;;;;;;;7.88;1.60;;;;;;;6.15;100.00;91698.81;4749032;30;20028;-83
2024/03/01 01:12:43;;;;;;;6.00;1.88;;;;;;;6.17;100.00;91696.69;4750260;30;20560;-83
2024/03/01 01:15:09;;;;;;;3.95;1.90;;;;;;;6.14;100.00;91697.25;4746608;30;20051;-83
2024/03/01 01:17:34;;;;;;;7.63;2.00;;;;;;;6.13;100.00;91690.53;4756522;30;20047;-83
2024/03/01 01:20:00;;;;;;;5.40;1.88;;;;;;;6.11;100.00;91677.81;4750530;30;20055;-83
2024/03/01 01:22:26;;;;;;;5.00;1.70;;;;;;;6.09;100.00;91668.75;4755550;30;20035;-82
2024/03/01 01:24:52;;;;;;;5.45;1.60;;;;;;;6.05;100.00;91671.88;4750255;30;20135;-83
2024/03/01 01:27:19;;;;;;;5.20;1.80;;;;;;;6.00;100.00;91658.19;4749798;30;20032;-84
2024/03/01 01:29:44;;;;;;;3.53;1.70;;;;;;;6.03;100.00;91661.03;4749953;30;20058;-82
2024/03/01 01:32:10;;;;;;;4.68;1.58;;;;;;;6.02;100.00;91659.47;4759410;30;20040;-82
2024/03/01 01:34:35;;;;;;;3.00;1.80;;;;;;;6.00;100.00;91664.16;4748949;30;20363;-82
2024/03/01 01:37:01;;;;;;;11.25;1.90;;;;;;;5.99;100.00;91654.03;4750341;30;20029;-83
2024/03/01 01:39:27;;;;;;;3.58;1.80;;;;;;;6.00;100.00;91660.78;4749981;30;20052;-83
2024/03/01 01:41:52;;;;;;;3.97;2.03;;;;;;;5.97;100.00;91656.94;4756242;30;20488;-83
2024/03/01 01:44:18;;;;;;;4.72;1.90;;;;;;;5.94;100.00;91635.88;4752972;30;20532;-83
2024/03/01 01:46:49;;;;;;;2.85;1.70;;;;;;;5.95;100.00;91633.03;4750161;30;20079;-83
2024/03/01 01:49:25;;;;;;;2.92;1.77;;;;;;;5.97;100.00;91632.78;4770884;30;20146;-82
2024/03/01 01:51:52;;;;;;;3.30;1.80;;;;;;;5.97;100.00;91624.97;4765218;30;20105;-83
2024/03/01 01:54:19;;;;;;;2.60;1.40;;;;;;;5.95;100.00;91606.31;4760439;30;20084;-83
2024/03/01 01:56:46;;;;;;;4.53;1.70;;;;;;;5.96;100.00;91613.03;4767497;30;20109;-82
2024/03/01 01:59:13;;;;;;;3.80;1.58;;;;;;;5.95;100.00;91607.06;4749898;30;20444;-83
2024/03/01 02:01:39;;;;;;;4.03;1.73;;;;;;;5.98;100.00;91596.09;4771047;30;20039;-83
2024/03/01 02:04:05;;;;;;;5.43;1.80;;;;;;;5.99;100.00;91605.47;4754559;30;20115;-82
2024/03/01 02:06:31;;;;;;;4.30;1.70;;;;;;;5.97;100.00;91601.59;4759975;30;20500;-83
2024/03/01 02:08:57;;;;;;;4.93;1.80;;;;;;;5.97;100.00;91597.19;4760606;30;20036;-82
2024/03/01 02:11:27;;;;;;;3.65;1.60;;;;;;;5.94;100.00;91595.13;4758075;30;20042;-81
2024/03/01 02:13:56;;;;;;;21.67;2.00;;;;;;;6.18;100.00;91596.91;4746733;30;20417;-83
2024/03/01 02:16:22;;;;;;;654.83;15.88;;;;;;;6.07;100.00;91593.66;4763153;30;20063;-82
2024/03/01 02:18:50;;;;;;;347.35;8.90;;;;;;;5.93;100.00;91588.34;4765434;30;20047;-82
2024/03/01 02:21:22;;;;;;;679.88;16.45;;;;;;;5.80;100.00;91578.66;4752922;30;20111;-82
2024/03/01 02:23:48;;;;;;;269.67;7.05;;;;;;;5.80;100.00;91568.25;4751142;30;20125;-82
2024/03/01 02:26:14;;;;;;;65.18;3.08;;;;;;;5.77;100.00;91571.44;4752276;30;20040;-82
2024/03/01 02:28:44;;;;;;;10.80;1.73;;;;;;;5.87;100.00;91570.50;4746174;30;20533;-82
2024/03/01 02:31:11;;;;;;;18.77;2.38;;;;;;;5.88;100.00;91570.25;4753580;30;20120;-83
2024/03/01 02:33:36;;;;;;;12.52;1.70;;;;;;;5.81;100.00;91565.41;4767314;30;20028;-83
2024/03/01 02:36:02;;;;;;;5.80;1.85;;;;;;;5.87;100.00;91560.91;4768638;30;20385;-82
2024/03/01 02:38:30;;;;;;;8.07;1.60;;;;;;;5.83;100.00;91567.69;4760609;30;20036;-82
2024/03/01 02:40:56;;;;;;;5.00;1.70;;;;;;;5.77;100.00;91559.22;4756353;30;20078;-83
2024/03/01 02:43:21;;;;;;;4.80;1.80;;;;;;;5.73;100.00;91558.22;4754367;30;20123;-82
2024/03/01 02:45:48;;;;;;;5.82;1.65;;;;;;;5.71;100.00;91556.94;4750476;30;20494;-83
2024/03/01 02:48:14;;;;;;;3.63;1.75;;;;;;;5.73;100.00;91557.44;4759856;30;20132;-83
2024/03/01 02:50:40;;;;;;;3.45;1.55;;;;;;;5.69;100.00;91544.22;4744637;30;20076;-83
2024/03/01 02:53:05;;;;;;;4.97;1.80;;;;;;;5.71;100.00;91538.78;4758988;30;20123;-83
2024/03/01 02:55:31;;;;;;;4.00;1.60;;;;;;;5.71;100.00;91547.31;4750853;30;20544;-83
2024/03/01 02:57:57;;;;;;;4.63;1.48;;;;;;;5.67;100.00;91528.16;4747007;30;20044;-83
2024/03/01 03:00:23;;;;;;;3.97;1.40;;;;;;;5.77;100.00;91542.84;4748581;30;20044;-82
2024/03/01 03:02:50;;;;;;;2.60;1.45;;;;;;;5.74;100.00;91546.00;4750160;30;20032;-83
2024/03/01 03:05:18;;;;;;;3.50;1.48;;;;;;;5.69;100.00;91541.63;4751183;30;20044;-83
2024/03/01 03:07:46;;;;;;;3.08;1.30;;;;;;;5.67;100.00;91533.34;4737388;30;20175;-83
2024/03/01 03:10:13;;;;;;;8.00;1.50;;;;;;;5.75;100.00;91539.75;4751178;30;20032;-83
2024/03/01 03:12:38;;;;;;;4.53;1.60;;;;;;;5.69;100.00;91546.81;4751410;30;20024;-83
2024/03/01 03:15:08;;;;;;;3.72;1.40;;;;;;;5.68;100.00;91547.13;4749267;30;20052;-83
2024/03/01 03:17:37;;;;;;;1.83;1.30;;;;;;;5.68;100.00;91544.53;4750106;30;20454;-82
2024/03/01 03:20:09;;;;;;;5.05;1.13;;;;;;;5.66;100.00;91531.06;4751272;30;20036;-83
2024/03/01 03:22:44;;;;;;;;;;;;;;;5.64;100.00;91539.88;4751155;30;20074;-83
2024/03/01 03:25:12;;;;;;;2.05;1.17;;;;;;;5.62;100.00;91536.78;4751458;30;19922;-82
2024/03/01 03:27:38;;;;;;;3.45;1.20;;;;;;;5.62;100.00;91531.59;4751441;30;20036;-82
2024/03/01 03:30:06;;;;;;;3.60;1.33;;;;;;;5.60;100.00;91525.91;4749936;30;20513;-83
2024/03/01 03:32:33;;;;;;;2.28;1.38;;;;;;;5.64;100.00;91536.50;4746214;30;20115;-82
2024/03/01 03:34:59;;;;;;;1.98;1.30;;;;;;;5.60;100.00;91525.91;4749711;30;20048;-83
2024/03/01 03:37:25;;;;;;;12.77;1.50;;;;;;;5.63;100.00;91530.56;4748931;30;20504;-83
2024/03/01 03:39:51;;;;;;;28.55;1.70;;;;;;;5.62;100.00;91521.22;4751074;30;20521;-82
2024/03/01 03:42:16;;;;;;;12.65;1.40;;;;;;;5.59;100.00;91521.00;4748995;30;20032;-82
2024/03/01 03:44:42;;;;;;;7.35;1.40;;;;;;;5.63;100.00;91538.34;4748980;30;20040;-83
2024/03/01 03:47:07;;;;;;;7.18;1.40;;;;;;;5.62;100.00;91530.81;4747607;30;20032;-82
2024/03/01 03:49:35;;;;;;;3.40;1.27;;;;;;;5.59;100.00;91521.78;4753323;30;20033;-83
2024/03/01 03:52:01;;;;;;;4.82;1.40;;;;;;;5.58;100.00;91522.84;4748884;30;20064;-83
2024/03/01 03:54:27;;;;;;;1.45;1.05;;;;;;;5.61;100.00;91530.06;4741666;30;20044;-82
2024/03/01 03:56:53;;;;;;;1.95;1.23;;;;;;;5.61;100.00;91514.47;4743899;30;20113;-83
2024/03/01 03:59:18;;;;;;;1.63;1.20;;;;;;;5.61;100.00;91517.06;4742693;30;20048;-83
2024/03/01 04:01:44;;;;;;;4.00;1.52;;;;;;;5.60;100.00;91512.91;4740681;30;20037;-83
2024/03/01 04:04:09;;;;;;;2.25;1.27;;;;;;;5.59;100.00;91511.38;4739169;30;20087;-83
2024/03/01 04:06:35;;;;;;;2.42;1.35;;;;;;;5.61;100.00;91517.06;4733954;30;20055;-83
2024/03/01 04:09:00;;;;;;;2.05;1.20;;;;;;;5.59;100.00;91515.81;4736386;30;20086;-83
2024/03/01 04:11:26;;;;;;;1.40;1.10;;;;;;;5.57;100.00;91516.09;4741285;30;20041;-83
2024/03/01 04:13:52;;;;;;;1.77;1.13;;;;;;;5.60;100.00;91517.34;4739487;30;20047;-82
2024/03/01 04:16:18;;;;;;;2.60;1.10;;;;;;;5.59;100.00;91519.19;4735605;30;20048;-83
2024/03/01 04:18:43;;;;;;;1.30;1.20;;;;;;;5.55;100.00;91517.41;4734293;30;20040;-83
2024/03/01 04:21:09;;;;;;;2.75;1.35;;;;;;;5.63;100.00;91516.81;4739269;30;20041;-83
2024/03/01 04:23:35;;;;;;;1.08;0.88;;;;;;;5.57;100.00;91510.13;4741924;30;20598;-83
2024/03/01 04:26:07;;;;;;;1.70;1.13;;;;;;;5.55;100.00;91514.81;4744038;30;20107;-82
2024/03/01 04:28:37;;;;;;;1.80;1.08;;;;;;;5.56;100.00;91508.56;4742213;30;20056;-83
2024/03/01 04:31:03;;;;;;;3.75;1.20;;;;;;;5.57;100.00;91513.47;4735419;30;20032;-83
2024/03/01 04:33:29;;;;;;;3.78;1.23;;;;;;;5.57;100.00;91508.28;4742037;30;20076;-83
2024/03/01 04:35:54;;;;;;;1.55;1.10;;;;;;;5.57;100.00;91502.34;4738749;30;20052;-83
2024/03/01 04:38:20;;;;;;;1.20;1.10;;;;;;;5.57;100.00;91505.69;4739788;30;20080;-83
2024/03/01 04:40:45;;;;;;;2.67;1.08;;;;;;;5.56;100.00;91506.75;4742421;30;20111;-84
2024/03/01 04:43:11;;;;;;;3.47;1.27;;;;;;;5.59;100.00;91515.81;4709598;30;20045;-83
2024/03/01 04:45:37;;;;;;;1.95;1.38;;;;;;;5.59;100.00;91511.38;4740836;30;20052;-83
2024/03/01 04:48:02;;;;;;;1.98;1.10;;;;;;;5.59;100.00;91510.63;4741895;30;20050;-84
2024/03/01 04:50:28;;;;;;;9.98;1.52;;;;;;;5.55;100.00;91510.38;4727560;30;20036;-84
2024/03/01 04:52:54;;;;;;;1.80;1.20;;;;;;;5.57;100.00;91512.72;4743910;30;20074;-84
2024/03/01 04:55:19;;;;;;;407.13;9.32;;;;;;;5.59;100.00;91511.38;4738531;30;20073;-84
2024/03/01 04:57:45;;;;;;;127.88;3.92;;;;;;;5.52;100.00;91517.97;4744947;30;20044;-84
2024/03/01 05:00:12;;;;;;;547.65;13.35;;;;;;;5.47;100.00;91513.63;4727641;30;20056;-83
2024/03/01 05:02:47;;;;;;;706.47;16.70;;;;;;;5.40;100.00;91511.38;4738129;30;20044;-83
2024/03/01 05:05:18;;;;;;;115.85;4.43;;;;;;;5.42;100.00;91511.06;4739190;30;20408;-83
2024/03/01 05:07:48;;;;;;;76.00;3.05;;;;;;;5.50;100.00;91515.66;4737597;30;20394;-83
2024/03/01 05:10:22;;;;;;;238.48;5.72;;;;;;;5.55;100.00;91515.59;4739331;30;20028;-83
2024/03/01 05:12:51;;;;;;;191.13;4.72;;;;;;;5.53;100.00;91517.69;4732854;30;20040;-83
2024/03/01 05:15:17;;;;;;;324.73;8.23;;;;;;;5.42;100.00;91504.03;4734458;30;20049;-83
2024/03/01 05:17:44;;;;;;;99.18;3.42;;;;;;;5.44;100.00;91511.56;4739265;30;20037;-84
2024/03/01 05:20:11;;;;;;;14.85;1.60;;;;;;;5.40;100.00;91506.19;4732972;30;20048;-84
2024/03/01 05:22:41;;;;;;;1.83;1.33;;;;;;;5.41;100.00;91512.13;4744098;30;20513;-83
2024/03/01 05:25:16;;;;;;;2.58;1.40;;;;;;;5.40;100.00;91508.78;4744824;30;20036;-85
2024/03/01 05:27:46;;;;;;;1.77;1.40;;;;;;;5.40;100.00;91513.16;4727873;30;20050;-84
2024/03/01 05:30:15;;;;;;;16.92;1.77;;;;;;;5.38;100.00;91517.84;4743812;30;20043;-84
2024/03/01 05:32:44;;;;;;;2.13;1.45;;;;;;;5.40;100.00;91526.16;4735463;30;20120;-84
2024/03/01 05:35:11;;;;;;;3.22;1.42;;;;;;;5.37;100.00;91518.91;4742979;30;20068;-81
2024/03/01 05:37:37;;;;;;;2.38;1.30;;;;;;;5.36;100.00;91518.16;4741216;30;20055;-83
2024/03/01 05:40:14;;;;;;;2.97;1.48;;;;;;;5.52;100.00;91523.16;4729318;30;20071;-83
2024/03/01 05:42:41;;;;;;;87.40;3.10;;;;;;;5.52;100.00;91528.38;4740458;30;20100;-80
2024/03/01 05:45:08;;;;;;;7.18;1.50;;;;;;;5.47;100.00;91529.19;4728382;30;20071;-80
2024/03/01 05:47:38;;;;;;;7.43;1.40;;;;;;;5.47;100.00;91523.22;4740190;30;20049;-81
2024/03/01 05:50:05;;;;;;;53.17;2.58;;;;;;;5.41;100.00;91512.13;4737417;30;20048;-83
2024/03/01 05:52:32;;;;;;;2.58;1.67;;;;;;;5.37;100.00;91511.13;4728180;30;20053;-82
2024/03/01 05:54:58;;;;;;;2.42;1.40;;;;;;;5.41;100.00;91523.28;4732825;30;20049;-84
2024/03/01 05:57:25;;;;;;;3.92;1.40;;;;;;;5.40;100.00;91523.53;4735508;30;20552;-82
2024/03/01 05:59:50;;;;;;;2.83;1.50;;;;;;;5.40;100.00;91518.34;4737737;30;20395;-81
2024/03/01 06:02:21;;;;;;;45.28;2.33;;;;;;;5.46;100.00;91524.28;4743927;30;20058;-84
2024/03/01 06:04:47;;;;;;;5.13;1.50;;;;;;;5.37;100.00;91513.72;4734690;30;20041;-83
2024/03/01 06:07:12;;;;;;;2.00;1.48;;;;;;;5.42;100.00;91518.84;4728411;30;20071;-81
2024/03/01 06:09:38;;;;;;;3.10;1.95;;;;;;;5.40;100.00;91513.97;4744464;30;20051;-82
2024/03/01 06:12:04;;;;;;;4.15;2.33;;;;;;;5.40;100.00;91518.34;4725012;30;20435;-82
2024/03/01 06:14:29;;;;;;;5.60;3.35;;;;;;;5.41;100.00;91519.91;4734534;30;20155;-79
2024/03/01 06:16:55;;;;;;;87.32;3.85;;;;;;;5.39;100.00;91527.22;4728152;30;20040;-80
2024/03/01 06:19:21;;;;;;;254.98;5.72;;;;;;;5.38;100.00;91525.66;4727268;30;20132;-81
2024/03/01 06:21:46;;;;;;;10.68;1.70;;;;;;;5.37;100.00;91529.31;4734490;30;20040;-81
2024/03/01 06:24:13;;;;;;;14.00;1.70;;;;;;;5.37;100.00;91527.47;4721232;30;20261;-81
2024/03/01 06:26:39;;;;;;;267.00;5.70;;;;;;;5.39;100.00;91527.22;4738496;30;20043;-82
2024/03/01 06:29:04;;;;;;;52.42;1.77;;;;;;;5.37;100.00;91532.66;4732466;30;20502;-81
2024/03/01 06:31:30;;;;;;;231.93;5.40;;;;;;;5.45;100.00;91533.91;4745976;30;20094;-81
2024/03/01 06:33:55;;;;;;;33.85;1.70;;;;;;;5.59;100.00;91526.19;4738053;30;20789;-82
2024/03/01 06:36:21;;;;;;;218.30;5.55;;;;;;;5.50;100.00;91539.03;4740613;30;20036;-85
2024/03/01 06:38:46;;;;;;;157.85;4.18;;;;;;;5.41;100.00;91532.91;4721879;30;20049;-81
2024/03/01 06:41:13;;;;;;;83.85;2.92;;;;;;;5.37;100.00;91547.47;4725019;30;20040;-84
2024/03/01 06:43:39;;;;;;;75.93;2.88;;;;;;;5.34;100.00;91545.44;4739354;30;20402;-83
2024/03/01 06:46:07;;;;;;;26.42;1.98;;;;;;;5.29;100.00;91551.47;4736962;30;20052;-83
2024/03/01 06:48:33;;;;;;;2.03;1.30;;;;;;;5.20;100.00;91540.91;4748654;30;20040;-84
2024/03/01 06:50:58;;;;;;;13.20;1.83;;;;;;;5.27;100.00;91552.75;4735936;30;20463;-81
2024/03/01 06:53:26;;;;;;;3.30;1.52;;;;;;;5.27;100.00;91557.94;4737855;30;20075;-82
2024/03/01 06:55:52;;;;;;;2.05;1.30;;;;;;;5.28;100.00;91555.09;4742344;30;20048;-82
2024/03/01 06:58:18;;;;;;;2.70;1.40;;;;;;;5.29;100.00;91558.44;4743271;30;20440;-82
2024/03/01 07:00:47;;;;;;;2.97;2.00;;;;;;;5.29;100.00;91558.44;4750410;30;20067;-82
2024/03/01 07:03:14;;;;;;;2.65;1.67;;;;;;;5.29;100.00;91550.66;4746415;30;20044;-83
2024/03/01 07:05:40;;;;;;;2.38;1.40;;;;;;;5.30;100.00;91542.59;4741229;30;20474;-82
2024/03/01 07:08:06;;;;;;;3.92;1.20;;;;;;;5.32;100.00;91547.53;4740545;30;20049;-81
2024/03/01 07:10:32;;;;;;;1.73;1.30;;;;;;;5.34;100.00;91535.81;4728482;30;20049;-82
2024/03/01 07:12:58;;;;;;;1.38;1.17;;;;;;;5.36;100.00;91531.13;4749486;30;20032;-83
2024/03/01 07:15:23;;;;;;;1.23;1.00;;;;;;;5.37;100.00;91537.09;4735352;30;20048;-83
2024/03/01 07:17:49;;;;;;;0.90;0.90;;;;;;;5.38;100.00;91539.41;4750253;30;20063;-81
2024/03/01 07:20:14;;;;;;;0.80;0.80;;;;;;;5.40;100.00;91534.72;4750587;30;20055;-82
2024/03/01 07:22:40;;;;;;;2.88;0.98;;;;;;;5.42;100.00;91534.44;4750143;30;20131;-82
2024/03/01 07:25:06;;;;;;;1.00;0.90;;;;;;;5.40;100.00;91534.72;4750200;30;20122;-83
2024/03/01 07:27:35;;;;;;;452.50;9.85;;;;;;;5.52;100.00;91546.53;4736395;30;20078;-82
2024/03/01 07:30:04;;;;;;;630.40;13.65;;;;;;;5.32;100.00;91537.16;4743791;30;20374;-82
2024/03/01 07:32:31;;;;;;;123.10;4.28;;;;;;;5.29;100.00;91548.06;4735489;30;20041;-82
2024/03/01 07:34:56;;;;;;;152.25;4.10;;;;;;;5.21;100.00;91545.03;4742924;30;20035;-83
2024/03/01 07:37:22;;;;;;;226.90;5.63;;;;;;;5.17;100.00;91551.06;4735882;30;20048;-83
2024/03/01 07:39:48;;;;;;;255.80;5.40;;;;;;;5.19;100.00;91552.31;4740053;30;20044;-81
2024/03/01 07:42:13;;;;;;;117.25;2.90;;;;;;;5.26;100.00;91559.00;4745844;30;20040;-83
2024/03/01 07:44:39;;;;;;;242.85;5.50;;;;;;;5.18;100.00;91553.38;4736502;30;20108;-81
2024/03/01 07:47:04;;;;;;;222.57;5.18;;;;;;;5.11;100.00;91547.75;4748241;30;20409;-81
2024/03/01 07:49:31;;;;;;;34.15;2.00;;;;;;;5.14;100.00;91551.59;4742835;30;20101;-82
2024/03/01 07:51:56;;;;;;;12.10;6.50;;;;;;;5.15;100.00;91553.91;4740623;30;20068;-82
2024/03/01 07:54:22;;;;;;;2.22;1.20;;;;;;;5.28;100.00;91556.91;4739538;30;20502;-81
2024/03/01 07:56:48;;;;;;;2.67;1.45;;;;;;;5.22;100.00;91551.00;4741226;30;20044;-82
2024/03/01 07:59:14;;;;;;;3.25;1.60;;;;;;;5.21;100.00;91554.66;4742405;30;20047;-81
2024/03/01 08:01:40;;;;;;;1.73;1.20;;;;;;;5.17;100.00;91544.03;4725126;30;20048;-82
2024/03/01 08:04:05;;;;;;;2.95;1.30;;;;;;;5.20;100.00;91553.09;4741796;30;20036;-81
2024/03/01 08:06:31;;;;;;;1.30;0.90;;;;;;;5.26;100.00;91554.59;4736207;30;20434;-81
2024/03/01 08:08:57;;;;;;;1.40;1.08;;;;;;;5.29;100.00;91558.44;4742823;30;20048;-81
2024/03/01 08:11:46;;;;;;;1.92;1.00;;;;;;;5.33;100.00;91543.88;4744058;30;20047;-83
2024/03/01 08:14:27;;;;;;;2.40;1.52;;;;;;;5.35;100.00;91552.94;4736471;30;20570;-82
2024/03/01 08:16:53;;;;;;;8.60;4.10;;;;;;;5.35;100.00;91541.78;4732576;30;20068;-81
2024/03/01 08:19:28;;;;;;;1.65;1.17;;;;;;;5.39;100.00;91543.53;4723030;30;20533;-81
2024/03/01 08:22:05;;;;;;;1.40;1.00;;;;;;;5.36;100.00;91536.31;4748346;30;20040;-81
2024/03/01 08:24:31;;;;;;;2.05;1.10;;;;;;;5.42;100.00;91542.22;4737412;30;20044;-79
2024/03/01 08:26:57;;;;;;;0.70;0.70;;;;;;;5.42;100.00;91537.03;4744579;30;20071;-81
2024/03/01 08:29:22;;;;;;;1.52;0.85;;;;;;;5.43;100.00;91534.16;4740881;30;20040;-80
2024/03/01 08:31:48;;;;;;;2.15;1.00;;;;;;;5.42;100.00;91537.03;4743444;30;20048;-82
2024/03/01 08:34:21;;;;;;;0.60;0.60;;;;;;;5.40;100.00;91532.13;4744970;30;20145;-82
2024/03/01 08:36:52;;;;;;;0.75;0.75;;;;;;;5.40;100.00;91539.13;4736024;30;20055;-81
2024/03/01 08:39:25;;;;;;;0.73;0.70;;;;;;;5.41;100.00;91541.44;4739676;30;20532;-83
2024/03/01 08:41:55;;;;;;;1.10;0.90;;;;;;;5.43;100.00;91544.53;4735361;30;20052;-83
2024/03/01 08:44:49;;;;;;;0.52;0.52;;;;;;;5.47;100.00;91542.19;4736026;30;20032;-83
2024/03/01 08:47:30;;;;;;;0.60;0.60;;;;;;;5.49;100.00;91553.03;4745427;30;20062;-83
2024/03/01 08:50:33;;;;;;;1.33;1.10;;;;;;;5.48;100.00;91545.53;4732518;30;20464;-81
2024/03/01 08:53:00;;;;;;;1.70;1.10;;;;;;;5.51;100.00;91540.56;4733515;30;20528;-82
2024/03/01 08:55:26;;;;;;;0.60;0.60;;;;;;;5.53;100.00;91541.03;4740529;30;20528;-84
2024/03/01 08:57:53;;;;;;;0.80;0.80;;;;;;;5.55;100.00;91544.13;4745395;30;20032;-82
2024/03/01 09:00:37;;;;;;;1.05;0.80;;;;;;;5.59;100.00;91541.78;4743316;30;20116;-84
2024/03/01 09:03:05;;;;;;;0.60;0.60;;;;;;;5.63;100.00;91545.38;4748973;30;20052;-83
2024/03/01 09:05:30;;;;;;;0.80;0.80;;;;;;;5.66;100.00;91541.44;4751667;30;20063;-83
2024/03/01 09:07:59;;;;;;;0.57;0.57;;;;;;;5.63;100.00;91538.34;4740089;30;20174;-80
2024/03/01 09:10:30;;;;;;;0.80;0.57;;;;;;;5.72;100.00;91540.31;4741892;30;20052;-82
2024/03/01 09:12:57;;;;;;;0.80;0.80;;;;;;;5.73;100.00;91541.88;4746202;30;20052;-81
2024/03/01 09:15:25;;;;;;;0.80;0.80;;;;;;;5.71;100.00;91542.13;4744933;30;20048;-82
2024/03/01 09:17:52;;;;;;;2.17;1.20;;;;;;;5.68;100.00;91539.34;4748319;30;20063;-82
2024/03/01 09:20:29;;;;;;;2.03;1.30;;;;;;;5.78;100.00;91541.78;4747538;30;20048;-83
2024/03/01 09:22:55;;;;;;;2.55;1.10;;;;;;;6.03;100.00;91541.50;4751074;30;20048;-79
2024/03/01 09:25:49;;;;;;;357.25;8.05;;;;;;;5.79;100.00;91543.34;4735288;30;20049;-82
2024/03/01 09:28:21;;;;;;;88.05;2.97;;;;;;;5.69;100.00;91543.47;4744969;30;20108;-81
2024/03/01 09:30:51;;;;;;;662.47;14.25;;;;;;;5.61;100.00;91537.84;4737272;30;20753;-81
2024/03/01 09:33:19;;;;;;;94.97;3.03;;;;;;;5.63;100.00;91538.34;4706820;30;20045;-81
2024/03/01 09:35:45;;;;;;;103.75;3.10;;;;;;;5.63;100.00;91538.34;4746344;30;20036;-80
2024/03/01 09:38:13;;;;;;;176.68;4.22;;;;;;;5.62;100.00;91539.38;4745765;30;20111;-82
2024/03/01 09:40:50;;;;;;;335.75;6.70;;;;;;;5.57;100.00;91536.84;4746786;30;20100;-79
2024/03/01 09:44:10;;;;;;;213.80;5.78;;;;;;;5.51;100.00;91535.34;4733400;30;20104;-79
2024/03/01 09:47:01;;;;;;;397.08;8.18;;;;;;;5.46;100.00;91537.25;4673155;30;20137;-80
2024/03/01 09:49:27;;;;;;;106.78;3.60;;;;;;;5.39;100.00;91532.41;4742588;30;20059;-81
2024/03/01 09:52:18;;;;;;;42.88;2.38;;;;;;;5.34;100.00;91537.66;4745651;30;20032;-82
2024/03/01 09:55:04;;;;;;;408.83;8.07;;;;;;;5.35;100.00;91539.19;4737833;30;20041;-82
2024/03/01 09:57:34;;;;;;;153.50;4.53;;;;;;;5.37;100.00;91539.69;4752334;30;20414;-80
2024/03/01 10:00:19;;;;;;;226.60;5.30;;;;;;;5.38;100.00;91538.63;4741380;30;20051;-81
2024/03/01 10:03:09;;;;;;;45.80;2.47;;;;;;;5.37;100.00;91543.03;4735636;30;20085;-81
2024/03/01 10:05:45;;;;;;;56.33;2.65;;;;;;;5.38;100.00;91538.63;4742019;30;20105;-81
2024/03/01 10:08:23;;;;;;;91.72;3.55;;;;;;;5.37;100.00;91543.03;4740421;30;20468;-81
2024/03/01 10:11:08;;;;;;;91.57;2.85;;;;;;;5.48;100.00;91545.53;4732722;30;20071;-82
2024/03/01 10:14:12;;;;;;;125.38;3.63;;;;;;;5.44;100.00;91550.50;4742167;30;20145;-80
2024/03/01 10:17:00;;;;;;;119.68;3.80;;;;;;;5.49;100.00;91545.25;4735234;30;20036;-82
2024/03/01 10:19:25;;;;;;;85.43;2.83;;;;;;;5.40;100.00;91550.31;4742517;30;20039;-81
2024/03/01 10:22:03;;;;;;;59.63;2.47;;;;;;;5.35;100.00;91547.75;4743686;30;20058;-81
2024/03/01 10:24:39;;;;;;;48.42;2.15;;;;;;;5.32;100.00;91547.53;4751376;30;20040;-82
2024/03/01 10:27:22;;;;;;;40.10;2.47;;;;;;;5.34;100.00;91540.25;4740330;30;20138;-81
2024/03/01 10:30:03;;;;;;;23.05;1.70;;;;;;;5.37;100.00;91550.84;4738097;30;20520;-82
2024/03/01 10:32:57;;;;;;;1.67;1.20;;;;;;;5.40;100.00;91544.31;4744274;30;20046;-82
2024/03/01 10:35:25;;;;;;;52.67;2.13;;;;;;;5.48;100.00;91556.69;4746901;30;20048;-79
2024/03/01 10:38:26;;;;;;;191.13;5.57;;;;;;;5.48;100.00;91555.91;4735128;30;20036;-82
2024/03/01 10:41:02;;;;;;;410.17;9.52;;;;;;;5.36;100.00;91558.91;4698174;30;20498;-82
2024/03/01 10:43:46;;;;;;;52.95;2.45;;;;;;;5.32;100.00;91560.50;4741902;30;20051;-80
2024/03/01 10:46:18;;;;;;;42.95;2.30;;;;;;;5.33;100.00;91554.25;4751240;30;20039;-80
2024/03/01 10:49:05;;;;;;;121.30;3.53;;;;;;;5.33;100.00;91559.44;4733600;30;20044;-81
2024/03/01 10:51:35;;;;;;;164.35;4.50;;;;;;;5.35;100.00;91558.13;4742848;30;20044;-80
2024/03/01 10:54:05;;;;;;;36.22;2.40;;;;;;;5.48;100.00;91554.09;4745448;30;20044;-81
2024/03/01 10:56:31;;;;;;;155.68;4.18;;;;;;;5.52;100.00;91557.69;4747828;30;20586;-79
2024/03/01 10:59:40;;;;;;;179.50;4.85;;;;;;;5.54;100.00;91550.41;4738132;30;20052;-80
2024/03/01 11:02:29;;;;;;;533.03;11.90;;;;;;;5.39;100.00;91560.94;4697996;30;20063;-83
2024/03/01 11:05:11;;;;;;;376.48;7.93;;;;;;;5.36;100.00;91551.91;4735214;30;20052;-83
2024/03/01 11:08:05;;;;;;;;;;;;;;;5.37;100.00;91548.25;4727551;30;20040;-83
2024/03/01 11:11:10;;;;;;;298.52;6.50;;;;;;;5.30;100.00;91553.00;4739669;30;19923;-83
2024/03/01 11:13:38;;;;;;;297.73;6.45;;;;;;;5.39;100.00;91553.16;4742336;30;20060;-79
2024/03/01 11:16:06;;;;;;;347.83;7.38;;;;;;;5.40;100.00;91549.50;4741971;30;20048;-83
2024/03/01 11:18:40;;;;;;;516.55;10.75;;;;;;;5.34;100.00;91558.41;4726613;30;20514;-82
2024/03/01 11:21:10;;;;;;;67.80;2.08;;;;;;;5.30;100.00;91558.19;4735016;30;20135;-82
2024/03/01 11:23:42;;;;;;;148.52;4.55;;;;;;;5.19;100.00;91559.34;4738765;30;20044;-82
2024/03/01 11:26:16;;;;;;;184.43;4.40;;;;;;;5.27;100.00;91555.34;4733396;30;20037;-82
2024/03/01 11:28:47;;;;;;;168.43;4.40;;;;;;;5.17;100.00;91544.03;4743034;30;20040;-84
2024/03/01 11:31:24;;;;;;;245.18;5.40;;;;;;;5.22;100.00;91548.41;4731913;30;20414;-83
2024/03/01 11:33:56;;;;;;;27.15;2.05;;;;;;;5.28;100.00;91549.13;4727770;30;20071;-82
2024/03/01 11:37:10;;;;;;;5.53;1.70;;;;;;;5.35;100.00;91539.19;4738938;30;20116;-82
2024/03/01 11:39:54;;;;;;;2.45;1.63;;;;;;;5.39;100.00;91542.78;4709893;30;20327;-83
2024/03/01 11:42:35;;;;;;;7.00;1.58;;;;;;;5.56;100.00;91537.13;4739664;30;20087;-83